Big Trout Lake, Canada
Current Conditions -  °F | °C
As of 5:00 PM on Thursday 23 Oct 2014 (Local Time) from CYTL Reporting Station
Overcast Overcast  
Wind Chill: 54°   Ceiling: 4700
Heat Index: 54°   Visibility: 9mi
Dew Point: 45°   Wind: 6mph
Humidity: 72%   Direction: 190°S
Pressure: 29.74"   Gusts: NA
Location:  53.77°N, 90.02°W
Report Text: CYTL 232100Z AUTO 19005KT 9SM OVC047 12/07 A2974 RMK SLP078
Loading
Personal Weather Stations






























Interactive Weather Map
Tropical Storm Tracking
New forecast layout! Learn more

10-Day Weather Forecast

Advertisements
Track Severe Weather on mobile